createdAt,value
2022-10-04T00:02:01.137Z,84.62
2022-10-04T00:05:14.045Z,84.90
2022-10-04T00:09:04.094Z,84.64
2022-10-04T00:12:30.448Z,85.23
2022-10-04T00:15:40.460Z,86.08
2022-10-04T00:19:16.542Z,86.21
2022-10-04T00:23:25.860Z,85.53
2022-10-04T00:26:32.104Z,85.80
2022-10-04T00:30:04.465Z,85.46
2022-10-04T00:33:47.416Z,84.65
2022-10-04T00:37:20.677Z,84.41
2022-10-04T00:40:38.636Z,84.04
2022-10-04T00:43:49.346Z,83.71
2022-10-04T00:46:59.402Z,84.00
2022-10-04T00:50:22.616Z,84.43
2022-10-04T00:53:53.706Z,84.68
2022-10-04T00:57:23.945Z,85.27
2022-10-04T01:00:34.321Z,86.01
2022-10-04T01:04:01.932Z,86.93
2022-10-04T01:07:16.409Z,87.34
2022-10-04T01:10:43.393Z,87.98
2022-10-04T01:14:02.022Z,89.06
2022-10-04T01:17:26.732Z,90.38
2022-10-04T01:20:56.615Z,90.44
2022-10-04T01:24:22.669Z,90.54
2022-10-04T01:28:06.920Z,89.53
2022-10-04T01:31:13.250Z,88.56
2022-10-04T01:34:22.236Z,87.81
2022-10-04T01:37:47.335Z,87.02
2022-10-04T01:41:15.995Z,86.44
2022-10-04T01:44:31.532Z,87.09
2022-10-04T01:48:00.504Z,87.57
2022-10-04T01:51:14.596Z,88.17
2022-10-04T01:54:55.803Z,88.44
2022-10-04T01:58:01.452Z,88.36
2022-10-04T02:01:39.804Z,88.77
2022-10-04T02:04:53.862Z,88.55
2022-10-04T02:07:58.753Z,88.26
2022-10-04T02:11:30.587Z,88.26
2022-10-04T02:14:35.508Z,88.55
2022-10-04T02:17:43.950Z,89.15
2022-10-04T02:21:07.777Z,88.95
2022-10-04T02:24:41.653Z,88.71
2022-10-04T02:27:45.306Z,86.79
2022-10-04T02:31:31.730Z,86.38
2022-10-04T02:34:58.483Z,86.25
2022-10-04T02:38:25.528Z,86.40
2022-10-04T02:41:56.775Z,86.53
2022-10-04T02:45:20.477Z,86.93
2022-10-04T02:48:38.182Z,86.91
2022-10-04T02:52:22.027Z,87.62
2022-10-04T02:55:36.086Z,87.75
2022-10-04T02:59:08.439Z,88.12
2022-10-04T03:02:31.700Z,89.05
2022-10-04T03:05:37.106Z,89.05
2022-10-04T03:09:04.245Z,89.58
2022-10-04T03:12:12.588Z,90.15
2022-10-04T03:15:18.155Z,90.42
2022-10-04T03:18:22.977Z,90.62
2022-10-04T03:21:49.909Z,90.75
2022-10-04T03:25:38.197Z,90.81
2022-10-04T03:29:34.445Z,92.00
2022-10-04T03:32:40.456Z,92.57
2022-10-04T03:36:03.723Z,93.41
2022-10-04T03:39:12.004Z,93.85
2022-10-04T03:42:37.056Z,93.94
2022-10-04T03:45:46.473Z,94.19
2022-10-04T03:49:16.719Z,94.37
2022-10-04T03:52:28.900Z,94.47
2022-10-04T03:55:43.776Z,94.76
2022-10-04T03:59:07.582Z,94.99
2022-10-04T04:02:32.305Z,95.83
2022-10-04T04:06:00.614Z,96.56
2022-10-04T04:09:43.946Z,97.30
2022-10-04T04:13:24.372Z,97.62
2022-10-04T04:16:47.948Z,97.49
2022-10-04T04:20:03.455Z,98.06
2022-10-04T04:23:16.168Z,97.63
2022-10-04T04:26:35.053Z,97.70
2022-10-04T04:30:01.163Z,98.20
2022-10-04T04:33:23.637Z,98.85
2022-10-04T04:36:40.885Z,99.44
2022-10-04T04:39:50.299Z,100.00
2022-10-04T04:43:30.978Z,99.78
2022-10-04T04:47:07.945Z,97.73
2022-10-04T04:50:27.400Z,96.66
2022-10-04T04:53:32.888Z,95.90
2022-10-04T04:56:57.587Z,95.80
2022-10-04T05:00:26.345Z,95.39
2022-10-04T05:03:31.652Z,94.49
2022-10-04T05:06:39.962Z,94.69
2022-10-04T05:09:42.508Z,94.54
2022-10-04T05:12:47.436Z,93.97
2022-10-04T05:16:21.768Z,93.70
2022-10-04T05:20:09.842Z,93.79
2022-10-04T05:23:42.706Z,93.37
2022-10-04T05:27:37.966Z,92.75
2022-10-04T05:31:03.524Z,92.61
2022-10-04T05:34:50.463Z,92.60
2022-10-04T05:38:28.972Z,92.61
2022-10-04T05:42:07.887Z,91.42
2022-10-04T05:45:35.776Z,91.53
2022-10-04T05:48:48.695Z,91.11
2022-10-04T05:52:16.253Z,90.98
2022-10-04T05:55:58.660Z,90.93
2022-10-04T05:59:25.326Z,91.32
2022-10-04T06:03:10.509Z,91.50
2022-10-04T06:06:28.855Z,90.95
2022-10-04T06:09:35.004Z,89.85
2022-10-04T06:12:55.942Z,88.81
2022-10-04T06:16:41.922Z,87.53
2022-10-04T06:20:06.263Z,86.49
2022-10-04T06:23:36.154Z,84.87
2022-10-04T06:26:40.952Z,84.92
2022-10-04T06:29:56.049Z,85.05
2022-10-04T06:33:17.347Z,84.76
2022-10-04T06:36:31.292Z,84.75
2022-10-04T06:40:09.088Z,84.09
2022-10-04T06:43:40.008Z,85.22
2022-10-04T06:46:56.563Z,85.29
2022-10-04T06:50:29.950Z,86.22
2022-10-04T06:54:27.907Z,85.91
2022-10-04T06:58:08.811Z,85.44
2022-10-04T07:01:35.847Z,85.38
2022-10-04T07:05:14.771Z,81.41
2022-10-04T07:08:51.851Z,81.22
2022-10-04T07:12:09.537Z,81.50
2022-10-04T07:15:20.963Z,80.46
2022-10-04T07:19:25.041Z,79.52
2022-10-04T07:23:00.322Z,80.15
2022-10-04T07:26:48.144Z,78.42
2022-10-04T07:30:20.780Z,76.01
2022-10-04T07:34:18.424Z,75.38
2022-10-04T07:41:53.703Z,74.11
2022-10-04T07:45:18.390Z,76.60
2022-10-04T07:52:48.111Z,78.23
2022-10-04T07:56:44.263Z,76.75
2022-10-04T08:00:12.487Z,76.76
2022-10-04T08:03:52.330Z,75.41
2022-10-04T08:07:31.744Z,74.38
2022-10-04T08:11:45.916Z,73.02
2022-10-04T08:15:08.467Z,69.40
2022-10-04T08:18:54.420Z,69.90
2022-10-04T08:22:27.228Z,68.95
2022-10-04T08:25:48.726Z,67.17
2022-10-04T08:29:43.143Z,66.37
2022-10-04T08:33:20.884Z,64.30
2022-10-04T08:36:48.306Z,62.10
2022-10-04T08:40:28.825Z,61.25
2022-10-04T08:44:21.303Z,58.34
2022-10-04T08:48:10.021Z,60.88
2022-10-04T08:51:31.785Z,61.04
2022-10-04T08:55:08.687Z,60.41
2022-10-04T08:58:41.618Z,58.36
2022-10-04T09:02:29.249Z,56.43
2022-10-04T09:05:53.917Z,57.14
2022-10-04T09:09:39.858Z,58.75
2022-10-04T09:13:25.675Z,58.80
2022-10-04T09:16:56.517Z,60.89
2022-10-04T09:20:39.960Z,59.26
2022-10-04T09:24:18.699Z,61.14
2022-10-04T09:27:58.301Z,58.39
2022-10-04T09:31:17.965Z,59.69
2022-10-04T09:35:13.385Z,58.59
2022-10-04T09:39:01.089Z,56.44
2022-10-04T09:42:52.579Z,54.26
2022-10-04T09:46:51.224Z,52.60
2022-10-04T09:50:49.685Z,52.75
2022-10-04T09:55:21.024Z,52.92
2022-10-04T10:03:48.838Z,51.69
2022-10-04T10:07:57.980Z,52.55
2022-10-04T10:12:37.819Z,53.57
2022-10-04T10:16:26.424Z,52.06
2022-10-04T10:20:23.790Z,52.59
2022-10-04T10:24:06.393Z,55.00
2022-10-04T10:28:08.196Z,56.08
2022-10-04T10:32:03.314Z,57.22
2022-10-04T10:44:44.480Z,57.43
2022-10-04T10:48:49.543Z,57.35
2022-10-04T10:57:01.836Z,58.59
2022-10-04T11:00:49.981Z,57.07
2022-10-04T11:04:31.737Z,56.46
2022-10-04T11:08:18.295Z,56.54
2022-10-04T11:11:50.803Z,53.74
2022-10-04T11:14:53.387Z,50.69
2022-10-04T11:18:07.839Z,49.42
2022-10-04T11:21:17.987Z,50.02
2022-10-04T11:24:45.076Z,47.32
2022-10-04T11:28:10.038Z,47.80
2022-10-04T11:31:17.709Z,45.16
2022-10-04T11:34:48.300Z,46.18
2022-10-04T11:37:57.522Z,47.30
2022-10-04T11:41:25.163Z,47.63
2022-10-04T11:44:52.500Z,46.66
2022-10-04T11:48:27.570Z,46.92
2022-10-04T11:51:47.930Z,48.16
2022-10-04T11:55:15.634Z,50.58
2022-10-04T11:58:40.036Z,50.67
2022-10-04T12:02:13.301Z,52.51
2022-10-04T12:05:33.470Z,53.28
2022-10-04T12:08:54.288Z,51.72
2022-10-04T12:12:37.821Z,54.00
2022-10-04T12:15:49.434Z,54.74
2022-10-04T12:19:15.493Z,57.72
2022-10-04T12:22:49.812Z,59.07
2022-10-04T12:26:50.033Z,59.94
2022-10-04T12:30:02.633Z,56.03
2022-10-04T12:33:23.725Z,57.04
2022-10-04T12:36:28.908Z,55.85
2022-10-04T12:40:03.131Z,56.02
2022-10-04T12:43:30.465Z,56.43
2022-10-04T12:46:53.025Z,53.98
2022-10-04T12:50:26.310Z,51.53
2022-10-04T12:53:56.681Z,53.16
2022-10-04T12:57:49.891Z,55.43
2022-10-04T13:05:11.201Z,57.88
2022-10-04T13:08:32.684Z,57.65
2022-10-04T13:11:47.148Z,58.20
2022-10-04T13:15:07.545Z,56.65
2022-10-04T13:18:22.033Z,53.39
2022-10-04T13:21:27.705Z,54.19
2022-10-04T13:24:52.984Z,52.77
2022-10-04T13:28:32.006Z,53.68
2022-10-04T13:31:37.045Z,52.75
2022-10-04T13:34:56.948Z,52.23
2022-10-04T13:38:35.993Z,53.08
2022-10-04T13:41:48.225Z,54.79
2022-10-04T13:45:09.149Z,53.52
2022-10-04T13:48:56.711Z,52.97
2022-10-04T13:52:53.644Z,52.55
2022-10-04T13:56:26.482Z,54.41
2022-10-04T13:59:40.094Z,53.28
2022-10-04T14:02:52.369Z,54.53
2022-10-04T14:06:20.793Z,53.55
2022-10-04T14:09:38.254Z,56.81
2022-10-04T14:13:03.071Z,53.48
2022-10-04T14:16:14.268Z,53.89
2022-10-04T14:19:38.050Z,52.46
2022-10-04T14:22:56.391Z,53.18
2022-10-04T14:26:07.468Z,54.35
2022-10-04T14:29:49.901Z,54.52
2022-10-04T14:32:59.109Z,54.87
2022-10-04T14:36:29.393Z,54.21
2022-10-04T14:39:50.208Z,53.80
2022-10-04T14:43:03.204Z,55.40
2022-10-04T14:46:31.236Z,56.36
2022-10-04T14:50:08.678Z,56.77
2022-10-04T14:53:28.471Z,56.56
2022-10-04T14:56:53.989Z,57.53
2022-10-04T15:00:19.746Z,57.81
2022-10-04T15:03:53.226Z,57.48
2022-10-04T15:07:16.704Z,58.72
2022-10-04T15:10:34.332Z,58.51
2022-10-04T15:14:06.898Z,58.88
2022-10-04T15:17:37.842Z,59.66
2022-10-04T15:21:28.914Z,61.90
2022-10-04T15:24:51.375Z,61.65
2022-10-04T15:27:58.557Z,61.37
2022-10-04T15:31:16.539Z,61.82
2022-10-04T15:34:47.042Z,60.14
2022-10-04T15:37:59.848Z,62.13
2022-10-04T15:41:28.901Z,62.33
2022-10-04T15:44:41.012Z,62.43
2022-10-04T15:48:11.258Z,64.12
2022-10-04T15:51:44.738Z,66.06
2022-10-04T15:55:13.043Z,67.18
2022-10-04T15:58:28.598Z,69.38
2022-10-04T16:02:31.604Z,69.71
2022-10-04T16:06:04.792Z,70.45
2022-10-04T16:09:41.800Z,71.10
2022-10-04T16:12:51.088Z,71.62
2022-10-04T16:16:33.216Z,72.15
2022-10-04T16:20:02.102Z,73.24
2022-10-04T16:23:29.869Z,73.54
2022-10-04T16:26:35.706Z,74.96
2022-10-04T16:30:25.539Z,75.31
2022-10-04T16:34:08.080Z,75.99
2022-10-04T16:37:10.457Z,77.44
2022-10-04T16:40:13.472Z,78.21
2022-10-04T16:43:17.686Z,78.39
2022-10-04T16:46:30.148Z,78.81
2022-10-04T16:49:54.269Z,79.78
2022-10-04T16:53:23.316Z,80.54
2022-10-04T16:56:28.991Z,80.88
2022-10-04T16:59:44.284Z,81.00
2022-10-04T17:03:32.883Z,82.21
2022-10-04T17:07:12.361Z,83.14
2022-10-04T17:11:28.320Z,83.19
2022-10-04T17:15:49.765Z,83.30
2022-10-04T17:19:52.556Z,83.28
2022-10-04T17:23:50.663Z,83.99
2022-10-04T17:27:46.780Z,84.06
2022-10-04T17:31:18.599Z,84.40
2022-10-04T17:35:10.228Z,85.27
2022-10-04T17:39:08.383Z,85.87
2022-10-04T17:42:49.090Z,86.92
2022-10-04T17:45:57.993Z,88.64
2022-10-04T17:50:01.424Z,89.07
2022-10-04T17:53:34.393Z,89.20
2022-10-04T17:57:25.520Z,91.32
2022-10-04T18:00:53.453Z,91.59
2022-10-04T18:04:09.245Z,92.10
2022-10-04T18:07:29.824Z,93.37
2022-10-04T18:20:30.027Z,94.79
2022-10-04T18:31:35.416Z,96.55
2022-10-04T18:35:26.333Z,97.30
2022-10-04T18:46:43.713Z,98.75
2022-10-04T18:50:27.787Z,100.00
2022-10-04T19:04:57.116Z,100.00
2022-10-04T19:28:08.514Z,100.00
2022-10-04T19:32:04.360Z,100.00
2022-10-04T19:44:50.030Z,100.00
2022-10-04T19:49:01.927Z,100.00
2022-10-04T20:01:13.963Z,100.00
2022-10-04T20:05:12.546Z,100.00
2022-10-04T20:13:27.006Z,100.00
2022-10-04T20:17:48.961Z,100.00
2022-10-04T20:22:00.018Z,100.00
2022-10-04T20:25:51.839Z,100.00
2022-10-04T20:29:46.622Z,100.00
2022-10-04T20:33:39.958Z,100.00
2022-10-04T20:37:49.497Z,100.00
2022-10-04T20:42:15.741Z,100.00
2022-10-04T20:45:45.541Z,100.00
2022-10-04T20:49:28.590Z,100.00
2022-10-04T20:53:35.572Z,100.00
2022-10-04T20:57:24.836Z,100.00
2022-10-04T21:00:56.877Z,100.00
2022-10-04T21:04:33.103Z,100.00
2022-10-04T21:08:33.630Z,100.00
2022-10-04T21:12:41.313Z,100.00
2022-10-04T21:15:57.170Z,100.00
2022-10-04T21:19:36.640Z,100.00
2022-10-04T21:22:42.095Z,100.00
2022-10-04T21:25:51.781Z,100.00
2022-10-04T21:29:14.151Z,100.00
2022-10-04T21:32:27.958Z,100.00
2022-10-04T21:35:42.360Z,100.00
2022-10-04T21:38:47.710Z,100.00
2022-10-04T21:41:58.873Z,100.00
2022-10-04T21:45:22.231Z,100.00
2022-10-04T21:48:45.436Z,100.00
2022-10-04T21:52:21.348Z,100.00
2022-10-04T21:56:07.659Z,100.00
2022-10-04T21:59:53.766Z,100.00
2022-10-04T22:03:19.979Z,100.00
2022-10-04T22:06:47.535Z,100.00
2022-10-04T22:10:40.023Z,100.00
2022-10-04T22:14:29.868Z,100.00
2022-10-04T22:17:58.680Z,100.00
2022-10-04T22:21:07.394Z,100.00
2022-10-04T22:24:16.644Z,100.00
2022-10-04T22:28:19.578Z,100.00
2022-10-04T22:32:02.090Z,100.00
2022-10-04T22:35:32.235Z,100.00
2022-10-04T22:39:30.502Z,100.00
2022-10-04T22:42:56.371Z,100.00
2022-10-04T22:46:22.407Z,100.00
2022-10-04T22:50:35.125Z,100.00
2022-10-04T22:53:47.054Z,100.00
2022-10-04T22:57:10.643Z,100.00
2022-10-04T23:00:25.136Z,100.00
2022-10-04T23:03:50.153Z,100.00
2022-10-04T23:07:21.213Z,100.00
2022-10-04T23:10:34.756Z,100.00
2022-10-04T23:13:58.996Z,100.00
2022-10-04T23:17:42.901Z,100.00
2022-10-04T23:21:32.300Z,100.00
2022-10-04T23:25:00.435Z,100.00
2022-10-04T23:28:27.266Z,100.00
2022-10-04T23:31:58.547Z,100.00
2022-10-04T23:35:38.174Z,100.00
2022-10-04T23:39:28.457Z,100.00
2022-10-04T23:42:56.416Z,100.00
2022-10-04T23:46:46.279Z,100.00
2022-10-04T23:50:35.222Z,100.00
2022-10-04T23:54:38.504Z,100.00
2022-10-04T23:58:41.910Z,100.00
